createdAt,value
2017-05-01T00:02:26.120Z,14.08
2017-05-01T00:04:52.796Z,12.95
2017-05-01T00:07:19.462Z,13.35
2017-05-01T00:09:46.135Z,14.80
2017-05-01T00:12:12.810Z,16.63
2017-05-01T00:14:39.474Z,13.25
2017-05-01T00:17:06.151Z,13.63
2017-05-01T00:19:32.828Z,14.30
2017-05-01T00:21:59.497Z,15.57
2017-05-01T00:24:26.164Z,14.92
2017-05-01T00:26:52.860Z,15.35
2017-05-01T00:29:19.531Z,18.25
2017-05-01T00:31:46.255Z,12.08
2017-05-01T00:34:12.922Z,16.88
2017-05-01T00:36:39.599Z,17.23
2017-05-01T00:39:06.288Z,14.92
2017-05-01T00:41:32.951Z,17.25
2017-05-01T00:43:59.616Z,17.90
2017-05-01T00:46:26.286Z,21.30
2017-05-01T00:48:52.960Z,14.40
2017-05-01T00:51:19.636Z,18.58
2017-05-01T00:53:46.450Z,16.47
2017-05-01T00:56:13.115Z,14.90
2017-05-01T00:58:39.786Z,20.02
2017-05-01T01:01:06.454Z,14.00
2017-05-01T01:03:33.131Z,18.60
2017-05-01T01:05:59.801Z,16.12
2017-05-01T01:08:26.474Z,15.95
2017-05-01T01:11:12.928Z,18.23
2017-05-01T01:13:39.598Z,16.75
2017-05-01T01:16:06.267Z,18.33
2017-05-01T01:18:32.948Z,16.72
2017-05-01T01:20:59.618Z,21.00
2017-05-01T01:23:26.293Z,19.57
2017-05-01T01:25:52.958Z,16.17
2017-05-01T01:28:19.623Z,20.57
2017-05-01T01:30:46.286Z,18.35
2017-05-01T01:33:12.954Z,20.37
2017-05-01T01:35:39.618Z,16.33
2017-05-01T01:38:06.285Z,16.17
2017-05-01T01:40:32.962Z,20.08
2017-05-01T01:42:59.628Z,18.93
2017-05-01T01:45:26.302Z,17.08
2017-05-01T01:47:52.976Z,18.50
2017-05-01T01:50:19.647Z,20.10
2017-05-01T01:52:46.319Z,19.48
2017-05-01T01:55:12.987Z,17.12
2017-05-01T01:57:39.653Z,19.40
2017-05-01T02:00:06.333Z,18.37
2017-05-01T02:02:33.005Z,16.78
2017-05-01T02:04:59.670Z,19.28
2017-05-01T02:07:26.331Z,13.27
2017-05-01T02:09:53.003Z,20.08
2017-05-01T02:12:19.670Z,17.35
2017-05-01T02:14:46.351Z,18.72
2017-05-01T02:17:13.028Z,17.12
2017-05-01T02:19:39.694Z,21.32
2017-05-01T02:22:06.360Z,18.82
2017-05-01T02:24:33.021Z,20.00
2017-05-01T02:26:59.690Z,18.83
2017-05-01T02:29:26.364Z,19.27
2017-05-01T02:31:53.026Z,17.38
2017-05-01T02:34:19.699Z,19.65
2017-05-01T02:36:46.364Z,15.97
2017-05-01T02:39:13.036Z,20.78
2017-05-01T02:41:39.704Z,21.78
2017-05-01T02:44:06.378Z,19.17
2017-05-01T02:46:33.051Z,18.62
2017-05-01T02:48:59.730Z,19.30
2017-05-01T02:51:26.402Z,20.98
2017-05-01T02:53:53.075Z,20.38
2017-05-01T02:56:19.754Z,18.20
2017-05-01T02:58:46.424Z,19.75
2017-05-01T03:01:13.096Z,18.53
2017-05-01T03:03:39.766Z,20.90
2017-05-01T03:06:06.436Z,20.20
2017-05-01T03:08:33.098Z,17.93
2017-05-01T03:10:59.767Z,20.80
2017-05-01T03:13:26.435Z,20.20
2017-05-01T03:15:53.133Z,19.37
2017-05-01T03:18:19.802Z,19.15
2017-05-01T03:20:46.474Z,20.13
2017-05-01T03:23:13.140Z,18.48
2017-05-01T03:25:39.808Z,17.03
2017-05-01T03:28:06.479Z,19.42
2017-05-01T03:30:33.151Z,18.42
2017-05-01T03:32:59.831Z,20.32
2017-05-01T03:35:26.502Z,20.25
2017-05-01T03:37:53.176Z,19.45
2017-05-01T03:40:19.843Z,15.95
2017-05-01T03:42:46.526Z,21.68
2017-05-01T03:45:13.199Z,19.05
2017-05-01T03:47:39.866Z,19.50
2017-05-01T03:50:06.547Z,17.72
2017-05-01T03:52:33.219Z,18.63
2017-05-01T03:54:59.889Z,17.70
2017-05-01T03:57:26.554Z,17.28
2017-05-01T03:59:53.231Z,18.57
2017-05-01T04:02:19.902Z,19.65
2017-05-01T04:04:46.570Z,19.18
2017-05-01T04:07:13.249Z,17.77
2017-05-01T04:09:39.918Z,19.57
2017-05-01T04:12:06.589Z,19.75
2017-05-01T04:14:33.260Z,20.42
2017-05-01T04:16:59.930Z,22.58
2017-05-01T04:19:26.603Z,19.78
2017-05-01T04:21:53.284Z,17.47
2017-05-01T04:24:19.963Z,18.55
2017-05-01T04:26:46.634Z,18.80
2017-05-01T04:29:13.308Z,17.75
2017-05-01T04:31:39.975Z,20.23
2017-05-01T04:34:06.645Z,18.95
2017-05-01T04:36:33.324Z,17.72
2017-05-01T04:38:59.995Z,17.87
2017-05-01T04:41:26.672Z,19.75
2017-05-01T04:43:53.345Z,16.43
2017-05-01T04:46:20.050Z,20.68
2017-05-01T04:48:46.758Z,19.80
2017-05-01T04:51:13.427Z,18.92
2017-05-01T04:53:40.096Z,24.42
2017-05-01T04:56:06.763Z,19.48
2017-05-01T04:58:33.435Z,20.07
2017-05-01T05:01:00.110Z,20.48
2017-05-01T05:03:26.784Z,20.10
2017-05-01T05:05:53.457Z,19.58
2017-05-01T05:08:20.123Z,20.93
2017-05-01T05:10:46.792Z,20.60
2017-05-01T05:13:13.463Z,19.83
2017-05-01T05:15:40.143Z,17.50
2017-05-01T05:18:06.814Z,20.05
2017-05-01T05:20:33.485Z,19.18
2017-05-01T05:23:00.171Z,18.77
2017-05-01T05:25:26.842Z,18.42
2017-05-01T05:27:53.539Z,18.87
2017-05-01T05:30:20.215Z,19.45
2017-05-01T05:32:46.887Z,19.95
2017-05-01T05:35:13.566Z,18.47
2017-05-01T05:37:40.235Z,19.33
2017-05-01T05:40:06.908Z,18.63
2017-05-01T05:42:33.586Z,19.58
2017-05-01T05:45:00.264Z,18.13
2017-05-01T05:47:26.931Z,18.23
2017-05-01T05:49:53.607Z,19.05
2017-05-01T05:52:20.274Z,20.08
2017-05-01T05:54:46.948Z,19.45
2017-05-01T05:57:13.615Z,19.42
2017-05-01T05:59:40.300Z,19.53
2017-05-01T06:02:06.973Z,19.20
2017-05-01T06:04:33.643Z,21.18
2017-05-01T06:07:00.312Z,21.38
2017-05-01T06:09:26.997Z,18.62
2017-05-01T06:11:53.666Z,19.90
2017-05-01T06:14:20.340Z,19.97
2017-05-01T06:16:47.023Z,20.92
2017-05-01T06:19:13.707Z,20.15
2017-05-01T06:21:40.379Z,21.32
2017-05-01T06:24:07.057Z,19.64
2017-05-01T06:26:33.719Z,19.80
2017-05-01T06:29:00.383Z,21.10
2017-05-01T06:31:27.056Z,19.46
2017-05-01T06:33:53.759Z,19.80
2017-05-01T06:36:20.434Z,19.40
2017-05-01T06:38:47.101Z,19.44
2017-05-01T06:41:13.770Z,19.44
2017-05-01T06:43:40.447Z,20.56
2017-05-01T06:46:07.114Z,19.80
2017-05-01T06:48:33.780Z,19.24
2017-05-01T06:51:00.447Z,20.78
2017-05-01T06:53:27.115Z,21.72
2017-05-01T06:55:53.784Z,21.72
2017-05-01T06:58:20.455Z,22.88
2017-05-01T07:00:47.122Z,21.74
2017-05-01T07:03:13.790Z,20.68
2017-05-01T07:05:40.451Z,20.38
2017-05-01T07:08:07.119Z,22.52
2017-05-01T07:10:33.792Z,22.96
2017-05-01T07:13:00.458Z,22.12
2017-05-01T07:15:27.135Z,21.40
2017-05-01T07:17:53.816Z,21.46
2017-05-01T07:20:20.486Z,21.44
2017-05-01T07:22:47.155Z,22.90
2017-05-01T07:25:13.816Z,23.34
2017-05-01T07:27:40.483Z,22.34
2017-05-01T07:30:07.149Z,23.10
2017-05-01T07:32:33.815Z,22.44
2017-05-01T07:35:00.606Z,24.02
2017-05-01T07:37:27.274Z,22.48
2017-05-01T07:39:53.971Z,22.98
2017-05-01T07:42:20.648Z,23.52
2017-05-01T07:44:47.322Z,23.46
2017-05-01T07:47:13.999Z,22.84
2017-05-01T07:49:40.672Z,21.40
2017-05-01T07:52:07.350Z,23.12
2017-05-01T07:54:34.019Z,24.72
2017-05-01T07:57:00.683Z,25.48
2017-05-01T07:59:27.363Z,24.22
2017-05-01T08:01:54.034Z,24.14
2017-05-01T08:04:20.706Z,23.56
2017-05-01T08:06:47.375Z,25.48
2017-05-01T08:09:14.047Z,23.46
2017-05-01T08:11:40.719Z,22.88
2017-05-01T08:14:07.384Z,24.22
2017-05-01T08:16:34.087Z,23.56
2017-05-01T08:19:00.761Z,24.46
2017-05-01T08:21:27.438Z,25.52
2017-05-01T08:23:54.111Z,24.36
2017-05-01T08:26:20.779Z,24.36
2017-05-01T08:28:47.450Z,23.92
2017-05-01T08:31:14.129Z,25.38
2017-05-01T08:33:40.810Z,26.36
2017-05-01T08:36:07.486Z,26.22
2017-05-01T08:38:34.164Z,26.48
2017-05-01T08:41:00.836Z,26.56
2017-05-01T08:43:27.504Z,25.66
2017-05-01T08:45:54.190Z,24.44
2017-05-01T08:48:20.859Z,26.02
2017-05-01T08:50:47.550Z,26.44
2017-05-01T08:53:14.222Z,24.30
2017-05-01T08:55:40.894Z,25.68
2017-05-01T08:58:07.568Z,24.60
2017-05-01T09:00:34.467Z,26.04
2017-05-01T09:03:01.140Z,25.08
2017-05-01T09:05:27.811Z,27.04
2017-05-01T09:07:54.486Z,25.88
2017-05-01T09:10:21.568Z,24.14
2017-05-01T09:12:48.474Z,25.92
2017-05-01T09:15:15.144Z,25.16
2017-05-01T09:17:41.820Z,26.02
2017-05-01T09:20:08.495Z,26.64
2017-05-01T09:22:35.174Z,27.56
2017-05-01T09:25:01.845Z,27.02
2017-05-01T09:27:28.519Z,27.44
2017-05-01T09:29:55.189Z,25.70
2017-05-01T09:32:21.854Z,27.72
2017-05-01T09:34:48.519Z,25.92
2017-05-01T09:37:15.190Z,28.48
2017-05-01T09:39:41.867Z,27.88
2017-05-01T09:42:08.547Z,27.84
2017-05-01T09:44:35.227Z,28.74
2017-05-01T09:47:01.900Z,26.38
2017-05-01T09:49:28.574Z,28.30
2017-05-01T09:51:55.275Z,27.02
2017-05-01T09:54:21.951Z,26.36
2017-05-01T09:56:48.634Z,27.22
2017-05-01T09:59:15.310Z,29.44
2017-05-01T10:01:41.990Z,24.66
2017-05-01T10:04:08.665Z,26.48
2017-05-01T10:06:35.338Z,25.88
2017-05-01T10:09:02.006Z,26.78
2017-05-01T10:11:28.694Z,24.88
2017-05-01T10:13:55.372Z,22.76
2017-05-01T10:16:22.042Z,27.78
2017-05-01T10:18:48.711Z,26.34
2017-05-01T10:21:15.378Z,26.98
2017-05-01T10:23:42.044Z,25.88
2017-05-01T10:26:08.710Z,23.50
2017-05-01T10:28:35.383Z,25.78
2017-05-01T10:31:02.053Z,26.60
2017-05-01T10:33:28.723Z,26.82
2017-05-01T10:35:55.398Z,24.42
2017-05-01T10:38:22.067Z,25.70
2017-05-01T10:40:48.734Z,24.72
2017-05-01T10:43:15.406Z,26.54
2017-05-01T10:45:42.084Z,25.42
2017-05-01T10:48:08.742Z,25.72
2017-05-01T10:50:35.406Z,27.72
2017-05-01T10:53:02.090Z,26.58
2017-05-01T10:55:28.759Z,24.80
2017-05-01T10:57:55.436Z,25.66
2017-05-01T11:00:22.710Z,26.62
2017-05-01T11:02:49.379Z,25.28
2017-05-01T11:05:16.059Z,27.46
2017-05-01T11:07:42.741Z,25.55
2017-05-01T11:10:09.414Z,24.92
2017-05-01T11:12:36.088Z,23.42
2017-05-01T11:15:02.759Z,26.08
2017-05-01T11:17:29.443Z,24.97
2017-05-01T11:19:56.122Z,23.73
2017-05-01T11:22:22.799Z,24.57
2017-05-01T11:24:49.467Z,25.47
2017-05-01T11:27:16.155Z,25.18
2017-05-01T11:29:42.836Z,24.27
2017-05-01T11:32:09.506Z,24.55
2017-05-01T11:34:36.182Z,25.65
2017-05-01T11:37:02.850Z,24.20
2017-05-01T11:39:29.523Z,21.97
2017-05-01T11:41:56.195Z,22.90
2017-05-01T11:44:22.903Z,25.70
2017-05-01T11:46:49.570Z,25.35
2017-05-01T11:49:16.251Z,23.63
2017-05-01T11:51:42.916Z,24.88
2017-05-01T11:54:09.590Z,24.85
2017-05-01T11:56:36.263Z,23.62
2017-05-01T11:59:02.952Z,23.37
2017-05-01T12:01:29.629Z,23.47
2017-05-01T12:03:56.297Z,22.03
2017-05-01T12:06:22.967Z,23.22
2017-05-01T12:08:49.647Z,23.23
2017-05-01T12:11:16.313Z,21.97
2017-05-01T12:13:42.988Z,22.58
2017-05-01T12:16:09.678Z,21.60
2017-05-01T12:18:36.355Z,23.12
2017-05-01T12:21:03.050Z,21.67
2017-05-01T12:23:29.724Z,23.67
2017-05-01T12:25:56.393Z,22.62
2017-05-01T12:28:23.458Z,23.97
2017-05-01T12:33:15.026Z,22.35
2017-05-01T12:35:41.695Z,23.15
2017-05-01T12:38:08.366Z,22.90
2017-05-01T12:40:35.025Z,23.12
2017-05-01T12:43:01.692Z,22.87
2017-05-01T12:45:28.355Z,21.53
2017-05-01T12:47:55.020Z,21.35
2017-05-01T12:50:21.686Z,23.02
2017-05-01T12:52:48.353Z,23.37
2017-05-01T12:55:15.011Z,22.53
2017-05-01T12:57:41.671Z,23.45
2017-05-01T13:00:08.361Z,23.50
2017-05-01T13:02:35.023Z,21.62
2017-05-01T13:05:01.696Z,23.63
2017-05-01T13:07:28.366Z,23.12
2017-05-01T13:09:55.027Z,21.18
2017-05-01T13:12:21.699Z,22.65
2017-05-01T13:14:48.370Z,23.60
2017-05-01T13:17:15.053Z,21.85
2017-05-01T13:19:41.723Z,22.27
2017-05-01T13:22:08.395Z,22.40
2017-05-01T13:24:35.071Z,23.33
2017-05-01T13:27:01.730Z,20.30
2017-05-01T13:29:28.403Z,22.10
2017-05-01T13:31:55.082Z,22.03
2017-05-01T13:34:21.746Z,20.08
2017-05-01T13:36:48.415Z,21.65
2017-05-01T13:39:15.073Z,20.60
2017-05-01T13:41:41.735Z,20.15
2017-05-01T13:44:08.395Z,22.08
2017-05-01T13:46:35.066Z,21.88
2017-05-01T13:49:01.738Z,20.82
2017-05-01T13:51:28.426Z,20.82
2017-05-01T13:53:55.082Z,20.30
2017-05-01T13:56:21.742Z,20.18
2017-05-01T13:58:48.434Z,19.85
2017-05-01T14:01:15.142Z,20.40
2017-05-01T14:03:41.802Z,20.80
2017-05-01T14:06:08.461Z,20.85
2017-05-01T14:08:35.146Z,18.55
2017-05-01T14:11:01.810Z,20.67
2017-05-01T14:13:28.479Z,19.83
2017-05-01T14:15:55.150Z,20.12
2017-05-01T14:18:21.810Z,17.97
2017-05-01T14:20:48.478Z,19.03
2017-05-01T14:23:15.134Z,17.77
2017-05-01T14:25:41.795Z,18.78
2017-05-01T14:28:08.461Z,17.17
2017-05-01T14:30:35.123Z,18.25
2017-05-01T14:33:01.786Z,17.78
2017-05-01T14:35:28.446Z,16.80
2017-05-01T14:37:55.115Z,17.62
2017-05-01T14:40:21.790Z,16.97
2017-05-01T14:42:48.455Z,18.07
2017-05-01T14:45:15.118Z,18.62
2017-05-01T14:47:41.792Z,17.98
2017-05-01T14:50:08.454Z,17.80
2017-05-01T14:52:35.115Z,16.13
2017-05-01T14:55:01.776Z,18.10
2017-05-01T14:57:28.446Z,19.20
2017-05-01T14:59:55.115Z,17.73
2017-05-01T15:02:21.775Z,17.82
2017-05-01T15:04:48.434Z,19.00
2017-05-01T15:07:15.095Z,18.88
2017-05-01T15:09:41.763Z,16.97
2017-05-01T15:12:08.422Z,17.42
2017-05-01T15:14:35.086Z,18.08
2017-05-01T15:17:01.750Z,18.97
2017-05-01T15:19:28.425Z,16.55
2017-05-01T15:21:55.090Z,17.75
2017-05-01T15:24:21.758Z,16.45
2017-05-01T15:26:48.429Z,16.70
2017-05-01T15:29:15.090Z,16.52
2017-05-01T15:31:41.761Z,14.82
2017-05-01T15:34:08.426Z,18.67
2017-05-01T15:36:35.094Z,17.98
2017-05-01T15:39:01.758Z,17.32
2017-05-01T15:41:28.443Z,17.42
2017-05-01T15:43:55.110Z,15.60
2017-05-01T15:46:21.774Z,17.02
2017-05-01T15:48:48.444Z,19.48
2017-05-01T15:51:15.106Z,17.92
2017-05-01T15:53:41.774Z,20.02
2017-05-01T15:56:08.442Z,18.27
2017-05-01T15:58:35.107Z,20.62
2017-05-01T16:01:01.774Z,17.47
2017-05-01T16:03:28.438Z,18.78
2017-05-01T16:05:55.102Z,19.32
2017-05-01T16:08:21.764Z,16.68
2017-05-01T16:10:48.435Z,16.98
2017-05-01T16:13:15.100Z,17.10
2017-05-01T16:15:43.766Z,16.72
2017-05-01T16:18:10.458Z,16.23
2017-05-01T16:20:37.119Z,15.25
2017-05-01T16:23:03.780Z,17.03
2017-05-01T16:25:30.442Z,17.52
2017-05-01T16:27:57.110Z,17.23
2017-05-01T16:30:23.778Z,15.82
2017-05-01T16:32:50.438Z,15.85
2017-05-01T16:35:17.102Z,15.98
2017-05-01T16:37:43.762Z,16.42
2017-05-01T16:40:10.422Z,15.30
2017-05-01T16:42:37.088Z,16.20
2017-05-01T16:45:03.750Z,16.70
2017-05-01T16:47:30.414Z,15.48
2017-05-01T16:49:57.079Z,16.92
2017-05-01T16:52:23.750Z,14.95
2017-05-01T16:54:50.423Z,15.62
2017-05-01T16:57:17.092Z,16.57
2017-05-01T16:59:43.782Z,15.13
2017-05-01T17:02:10.473Z,15.42
2017-05-01T17:04:37.167Z,15.72
2017-05-01T17:07:03.835Z,15.72
2017-05-01T17:09:30.535Z,15.92
2017-05-01T17:11:57.230Z,16.65
2017-05-01T17:14:23.890Z,15.20
2017-05-01T17:16:50.566Z,14.40
2017-05-01T17:19:17.222Z,17.13
2017-05-01T17:21:43.878Z,15.73
2017-05-01T17:24:10.542Z,16.68
2017-05-01T17:26:37.222Z,15.65
2017-05-01T17:29:03.887Z,15.52
2017-05-01T17:31:30.550Z,15.72
2017-05-01T17:36:13.106Z,15.25
2017-05-01T17:38:39.779Z,15.82
2017-05-01T17:41:06.455Z,15.32
2017-05-01T17:43:33.119Z,15.72
2017-05-01T17:45:59.774Z,16.30
2017-05-01T17:48:26.434Z,15.05
2017-05-01T17:50:53.099Z,15.83
2017-05-01T17:53:19.763Z,14.97
2017-05-01T17:55:46.426Z,14.95
2017-05-01T17:58:13.091Z,15.68
2017-05-01T18:00:39.758Z,15.27
2017-05-01T18:03:06.426Z,16.23
2017-05-01T18:05:33.090Z,15.03
2017-05-01T18:07:59.755Z,14.95
2017-05-01T18:10:26.427Z,15.38
2017-05-01T18:12:53.086Z,14.30
2017-05-01T18:15:19.755Z,17.52
2017-05-01T18:17:46.419Z,16.52
2017-05-01T18:20:13.078Z,17.08
2017-05-01T18:22:39.742Z,16.23
2017-05-01T18:25:06.405Z,15.87
2017-05-01T18:27:33.062Z,16.33
2017-05-01T18:29:59.728Z,15.70
2017-05-01T18:32:26.400Z,18.05
2017-05-01T18:34:53.066Z,17.53
2017-05-01T18:37:19.722Z,15.65
2017-05-01T18:39:46.382Z,15.67
2017-05-01T18:42:13.068Z,16.90
2017-05-01T18:44:39.727Z,17.10
2017-05-01T18:47:06.390Z,16.15
2017-05-01T18:49:33.055Z,16.25
2017-05-01T18:51:59.770Z,15.88
2017-05-01T18:54:26.438Z,20.48
2017-05-01T18:56:53.106Z,16.03
2017-05-01T18:59:19.770Z,15.85
2017-05-01T19:01:46.447Z,15.98
2017-05-01T19:04:13.115Z,15.42
2017-05-01T19:06:39.778Z,16.73
2017-05-01T19:09:06.442Z,16.77
2017-05-01T19:11:33.116Z,16.80
2017-05-01T19:13:59.774Z,16.87
2017-05-01T19:16:26.442Z,16.92
2017-05-01T19:18:53.111Z,17.08
2017-05-01T19:21:19.892Z,16.32
2017-05-01T19:23:46.707Z,17.70
2017-05-01T19:26:13.366Z,16.77
2017-05-01T19:28:40.038Z,16.62
2017-05-01T19:31:06.721Z,16.95
2017-05-01T19:33:33.403Z,16.87
2017-05-01T19:36:00.072Z,18.25
2017-05-01T19:38:26.747Z,17.17
2017-05-01T19:40:53.415Z,17.62
2017-05-01T19:43:20.115Z,16.98
2017-05-01T19:45:46.778Z,18.28
2017-05-01T19:48:13.450Z,17.50
2017-05-01T19:50:40.115Z,18.05
2017-05-01T19:53:06.782Z,18.08
2017-05-01T19:55:33.762Z,16.28
2017-05-01T19:58:00.426Z,17.75
2017-05-01T20:00:27.082Z,17.12
2017-05-01T20:02:53.753Z,16.52
2017-05-01T20:05:20.430Z,16.95
2017-05-01T20:07:47.096Z,18.30
2017-05-01T20:10:13.864Z,17.17
2017-05-01T20:12:40.542Z,17.07
2017-05-01T20:15:07.210Z,17.18
2017-05-01T20:17:33.878Z,16.88
2017-05-01T20:20:00.570Z,15.48
2017-05-01T20:22:27.230Z,17.47
2017-05-01T20:24:53.893Z,16.45
2017-05-01T20:27:20.550Z,16.08
2017-05-01T20:29:47.246Z,15.80
2017-05-01T20:32:13.916Z,16.07
2017-05-01T20:34:40.581Z,16.05
2017-05-01T20:37:07.246Z,16.58
2017-05-01T20:39:33.914Z,15.73
2017-05-01T20:42:00.578Z,16.47
2017-05-01T20:44:27.246Z,16.38
2017-05-01T20:49:32.802Z,14.78
2017-05-01T20:54:50.007Z,15.62
2017-05-01T20:57:16.678Z,15.77
2017-05-01T20:59:43.351Z,15.08
2017-05-01T21:02:10.018Z,14.47
2017-05-01T21:04:36.692Z,14.82
2017-05-01T21:07:03.380Z,14.45
2017-05-01T21:09:30.051Z,13.90
2017-05-01T21:11:56.720Z,14.73
2017-05-01T21:14:23.423Z,13.83
2017-05-01T21:16:50.133Z,13.37
2017-05-01T21:19:16.806Z,15.33
2017-05-01T21:21:43.470Z,14.03
2017-05-01T21:24:10.139Z,13.08
2017-05-01T21:26:36.811Z,13.97
2017-05-01T21:29:03.478Z,12.82
2017-05-01T21:31:30.148Z,13.18
2017-05-01T21:33:56.827Z,15.18
2017-05-01T21:36:23.494Z,13.93
2017-05-01T21:38:50.163Z,13.65
2017-05-01T21:41:16.829Z,12.53
2017-05-01T21:43:43.507Z,13.47
2017-05-01T21:46:10.188Z,12.83
2017-05-01T21:48:36.851Z,13.15
2017-05-01T21:51:03.516Z,14.22
2017-05-01T21:53:30.183Z,12.68
2017-05-01T21:55:56.852Z,12.07
2017-05-01T21:58:23.514Z,11.78
2017-05-01T22:00:50.182Z,12.67
2017-05-01T22:03:16.851Z,13.20
2017-05-01T22:05:43.522Z,12.70
2017-05-01T22:08:10.192Z,12.45
2017-05-01T22:10:36.857Z,12.37
2017-05-01T22:13:03.555Z,13.40
2017-05-01T22:15:30.222Z,12.17
2017-05-01T22:17:56.919Z,12.47
2017-05-01T22:20:23.590Z,12.78
2017-05-01T22:22:50.255Z,14.30
2017-05-01T22:25:16.922Z,12.55
2017-05-01T22:27:43.590Z,12.65
2017-05-01T22:30:10.255Z,12.62
2017-05-01T22:32:36.939Z,12.70
2017-05-01T22:35:03.607Z,12.53
2017-05-01T22:37:30.267Z,12.32
2017-05-01T22:39:56.935Z,13.28
2017-05-01T22:42:23.605Z,12.68
2017-05-01T22:44:50.275Z,11.98
2017-05-01T22:47:19.142Z,12.15
2017-05-01T22:49:45.819Z,12.17
2017-05-01T22:52:12.478Z,12.38
2017-05-01T22:54:39.171Z,13.35
2017-05-01T22:57:05.834Z,13.55
2017-05-01T22:59:32.498Z,12.83
2017-05-01T23:01:59.178Z,12.65
2017-05-01T23:04:25.842Z,12.88
2017-05-01T23:06:52.514Z,11.90
2017-05-01T23:09:19.182Z,12.25
2017-05-01T23:11:45.851Z,12.47
2017-05-01T23:14:12.524Z,12.48
2017-05-01T23:16:39.199Z,12.50
2017-05-01T23:19:05.870Z,12.90
2017-05-01T23:21:32.534Z,12.55
2017-05-01T23:23:59.201Z,13.02
2017-05-01T23:26:25.870Z,12.78
2017-05-01T23:28:52.535Z,12.65
2017-05-01T23:31:19.202Z,12.98
2017-05-01T23:33:45.871Z,12.95
2017-05-01T23:36:12.563Z,12.58
2017-05-01T23:38:39.231Z,12.38
2017-05-01T23:41:05.915Z,12.57
2017-05-01T23:43:32.583Z,12.00
2017-05-01T23:45:59.272Z,12.62
2017-05-01T23:48:26.255Z,13.42
2017-05-01T23:50:52.950Z,13.28
2017-05-01T23:53:19.613Z,13.22
2017-05-01T23:55:46.286Z,12.57
2017-05-01T23:58:12.956Z,13.12
